createdAt,value
2022-09-18T00:01:20.402Z,11.12
2022-09-18T00:03:47.398Z,11.21
2022-09-18T00:06:17.562Z,11.14
2022-09-18T00:08:44.172Z,11.07
2022-09-18T00:11:14.296Z,11.08
2022-09-18T00:13:41.664Z,11.12
2022-09-18T00:16:11.034Z,11.19
2022-09-18T00:18:38.227Z,11.25
2022-09-18T00:21:10.558Z,11.32
2022-09-18T00:23:37.985Z,11.19
2022-09-18T00:26:05.960Z,11.04
2022-09-18T00:28:33.162Z,11.13
2022-09-18T00:31:17.697Z,11.07
2022-09-18T00:33:45.153Z,10.93
2022-09-18T00:36:16.631Z,11.07
2022-09-18T00:38:43.262Z,11.15
2022-09-18T00:41:16.016Z,11.06
2022-09-18T00:43:42.767Z,11.11
2022-09-18T00:46:36.393Z,11.08
2022-09-18T00:49:16.360Z,10.91
2022-09-18T00:51:51.645Z,10.95
2022-09-18T00:54:36.963Z,10.93
2022-09-18T00:57:14.317Z,10.88
2022-09-18T00:59:45.393Z,10.90
2022-09-18T01:02:12.550Z,10.91
2022-09-18T01:04:39.459Z,10.86
2022-09-18T01:07:37.158Z,10.96
2022-09-18T01:10:31.943Z,11.14
2022-09-18T01:13:05.085Z,10.96
2022-09-18T01:15:54.553Z,10.74
2022-09-18T01:18:35.116Z,10.75
2022-09-18T01:21:09.766Z,10.63
2022-09-18T01:24:01.629Z,10.59
2022-09-18T01:26:48.707Z,10.65
2022-09-18T01:29:33.731Z,10.69
2022-09-18T01:32:18.907Z,10.75
2022-09-18T01:34:54.643Z,10.90
2022-09-18T01:37:28.935Z,10.87
2022-09-18T01:40:07.909Z,10.64
2022-09-18T01:42:36.336Z,10.71
2022-09-18T01:45:08.646Z,10.58
2022-09-18T01:47:41.917Z,10.71
2022-09-18T01:50:11.222Z,10.62
2022-09-18T01:52:44.874Z,10.69
2022-09-18T01:55:17.873Z,10.34
2022-09-18T01:57:54.995Z,10.68
2022-09-18T02:00:22.881Z,10.74
2022-09-18T02:03:11.788Z,10.78
2022-09-18T02:05:54.646Z,10.71
2022-09-18T02:08:48.091Z,10.74
2022-09-18T02:11:18.422Z,10.27
2022-09-18T02:13:53.736Z,10.86
2022-09-18T02:16:32.359Z,10.91
2022-09-18T02:19:07.630Z,10.94
2022-09-18T02:21:36.670Z,10.83
2022-09-18T02:24:08.871Z,10.78
2022-09-18T02:26:38.992Z,10.81
2022-09-18T02:29:07.999Z,10.90
2022-09-18T02:31:39.955Z,10.77
2022-09-18T02:34:09.280Z,10.77
2022-09-18T02:36:51.627Z,10.89
2022-09-18T02:39:40.619Z,10.91
2022-09-18T02:42:28.789Z,10.81
2022-09-18T02:45:26.810Z,10.85
2022-09-18T02:48:05.180Z,10.92
2022-09-18T02:51:10.198Z,10.74
2022-09-18T02:53:46.337Z,10.87
2022-09-18T02:56:24.821Z,10.82
2022-09-18T02:58:56.427Z,10.76
2022-09-18T03:01:27.286Z,10.39
2022-09-18T03:03:54.816Z,10.63
2022-09-18T03:06:34.021Z,10.61
2022-09-18T03:09:01.062Z,10.35
2022-09-18T03:11:27.701Z,10.55
2022-09-18T03:13:54.348Z,10.58
2022-09-18T03:16:21.068Z,10.57
2022-09-18T03:18:48.251Z,10.60
2022-09-18T03:21:15.174Z,10.48
2022-09-18T03:23:45.403Z,10.62
2022-09-18T03:26:17.367Z,10.58
2022-09-18T03:28:45.826Z,10.65
2022-09-18T03:31:14.080Z,10.60
2022-09-18T03:33:41.209Z,10.52
2022-09-18T03:36:10.997Z,10.69
2022-09-18T03:38:37.766Z,10.10
2022-09-18T03:41:06.977Z,10.34
2022-09-18T03:43:34.397Z,10.56
2022-09-18T03:46:01.932Z,10.33
2022-09-18T03:48:28.673Z,10.41
2022-09-18T03:51:20.423Z,10.35
2022-09-18T03:53:48.264Z,10.55
2022-09-18T03:56:38.755Z,10.59
2022-09-18T03:59:23.855Z,10.40
2022-09-18T04:01:50.577Z,10.40
2022-09-18T04:04:26.542Z,10.55
2022-09-18T04:07:11.651Z,10.50
2022-09-18T04:09:47.224Z,10.54
2022-09-18T04:12:15.389Z,10.55
2022-09-18T04:14:44.582Z,10.45
2022-09-18T04:17:11.206Z,10.44
2022-09-18T04:19:37.850Z,10.43
2022-09-18T04:22:04.728Z,10.62
2022-09-18T04:24:39.675Z,10.68
2022-09-18T04:27:07.776Z,10.72
2022-09-18T04:29:34.730Z,10.75
2022-09-18T04:32:01.775Z,10.65
2022-09-18T04:34:28.542Z,10.64
2022-09-18T04:36:55.194Z,10.50
2022-09-18T04:39:22.492Z,10.66
2022-09-18T04:41:50.580Z,10.64
2022-09-18T04:44:18.855Z,10.58
2022-09-18T04:46:45.676Z,10.65
2022-09-18T04:49:14.899Z,10.69
2022-09-18T04:51:42.501Z,10.73
2022-09-18T04:54:09.883Z,10.82
2022-09-18T04:56:37.618Z,10.80
2022-09-18T04:59:04.312Z,10.69
2022-09-18T05:01:31.816Z,10.76
2022-09-18T05:03:59.388Z,10.80
2022-09-18T05:06:37.360Z,10.75
2022-09-18T05:09:04.072Z,10.73
2022-09-18T05:11:30.703Z,10.78
2022-09-18T05:13:58.078Z,10.68
2022-09-18T05:16:27.359Z,10.55
2022-09-18T05:19:26.558Z,10.78
2022-09-18T05:21:59.805Z,10.80
2022-09-18T05:24:26.877Z,10.94
2022-09-18T05:26:53.470Z,11.08
2022-09-18T05:29:22.480Z,11.08
2022-09-18T05:31:50.978Z,10.99
2022-09-18T05:34:17.636Z,10.76
2022-09-18T05:36:45.895Z,10.73
2022-09-18T05:39:17.308Z,10.68
2022-09-18T05:41:44.857Z,10.62
2022-09-18T05:44:12.454Z,10.41
2022-09-18T05:46:41.513Z,10.57
2022-09-18T05:49:08.150Z,10.98
2022-09-18T05:51:35.028Z,11.06
2022-09-18T05:54:01.782Z,11.21
2022-09-18T05:56:38.401Z,11.31
2022-09-18T05:59:05.095Z,11.19
2022-09-18T06:01:32.396Z,11.17
2022-09-18T06:04:14.603Z,10.93
2022-09-18T06:06:50.601Z,10.97
2022-09-18T06:09:17.220Z,10.99
2022-09-18T06:11:43.895Z,11.27
2022-09-18T06:14:10.652Z,11.34
2022-09-18T06:16:41.939Z,11.02
2022-09-18T06:19:09.921Z,10.86
2022-09-18T06:21:36.767Z,11.15
2022-09-18T06:24:05.988Z,11.23
2022-09-18T06:27:09.520Z,11.02
2022-09-18T06:29:36.259Z,11.13
2022-09-18T06:32:09.203Z,10.99
2022-09-18T06:34:38.823Z,10.83
2022-09-18T06:37:10.284Z,11.24
2022-09-18T06:39:43.316Z,11.02
2022-09-18T06:42:17.236Z,11.28
2022-09-18T06:44:48.100Z,11.38
2022-09-18T06:47:16.014Z,11.33
2022-09-18T06:49:50.684Z,11.15
2022-09-18T06:52:17.528Z,11.49
2022-09-18T06:54:44.300Z,11.33
2022-09-18T06:57:18.284Z,11.24
2022-09-18T06:59:45.348Z,11.05
2022-09-18T07:02:19.177Z,11.67
2022-09-18T07:05:09.316Z,11.39
2022-09-18T07:07:39.347Z,11.48
2022-09-18T07:10:09.251Z,11.29
2022-09-18T07:12:48.327Z,11.55
2022-09-18T07:15:17.540Z,11.46
2022-09-18T07:17:44.812Z,11.71
2022-09-18T07:20:15.027Z,11.35
2022-09-18T07:22:47.292Z,11.24
2022-09-18T07:25:14.877Z,11.27
2022-09-18T07:27:43.221Z,11.11
2022-09-18T07:30:11.331Z,11.38
2022-09-18T07:32:37.955Z,11.57
2022-09-18T07:35:11.349Z,11.77
2022-09-18T07:37:39.006Z,11.95
2022-09-18T07:40:19.394Z,12.18
2022-09-18T07:42:46.043Z,12.10
2022-09-18T07:45:13.181Z,12.18
2022-09-18T07:47:39.888Z,12.07
2022-09-18T07:50:15.784Z,12.21
2022-09-18T07:52:53.387Z,12.26
2022-09-18T07:55:24.973Z,12.28
2022-09-18T07:58:01.139Z,12.55
2022-09-18T08:00:51.328Z,12.62
2022-09-18T08:03:19.798Z,12.15
2022-09-18T08:06:12.822Z,12.47
2022-09-18T08:09:08.872Z,12.32
2022-09-18T08:11:52.586Z,12.55
2022-09-18T08:14:37.605Z,12.99
2022-09-18T08:17:26.405Z,12.67
2022-09-18T08:20:09.146Z,12.77
2022-09-18T08:22:51.165Z,12.70
2022-09-18T08:25:21.927Z,12.70
2022-09-18T08:27:50.322Z,12.71
2022-09-18T08:30:26.237Z,12.67
2022-09-18T08:33:04.069Z,13.13
2022-09-18T08:35:31.828Z,12.94
2022-09-18T08:38:05.095Z,12.80
2022-09-18T08:40:42.328Z,12.95
2022-09-18T08:43:27.778Z,13.08
2022-09-18T08:46:01.103Z,13.46
2022-09-18T08:48:33.863Z,13.56
2022-09-18T08:51:10.740Z,13.60
2022-09-18T08:53:43.311Z,13.71
2022-09-18T08:56:34.104Z,13.86
2022-09-18T08:59:43.856Z,13.79
2022-09-18T09:02:38.822Z,13.73
2022-09-18T09:05:20.022Z,13.58
2022-09-18T09:08:03.404Z,13.75
2022-09-18T09:10:42.115Z,13.87
2022-09-18T09:13:11.494Z,13.93
2022-09-18T09:16:07.095Z,13.92
2022-09-18T09:18:53.023Z,14.13
2022-09-18T09:21:34.035Z,14.16
2022-09-18T09:24:03.473Z,14.03
2022-09-18T09:26:49.974Z,14.14
2022-09-18T09:29:41.511Z,14.15
2022-09-18T09:32:43.828Z,14.49
2022-09-18T09:35:27.442Z,14.47
2022-09-18T09:38:13.264Z,14.17
2022-09-18T09:40:47.440Z,14.50
2022-09-18T09:43:38.983Z,14.10
2022-09-18T09:46:44.156Z,14.30
2022-09-18T09:49:43.406Z,14.51
2022-09-18T09:52:28.485Z,14.38
2022-09-18T09:55:13.816Z,14.44
2022-09-18T09:58:06.476Z,14.71
2022-09-18T10:00:44.365Z,15.13
2022-09-18T10:03:31.136Z,15.11
2022-09-18T10:06:18.596Z,15.28
2022-09-18T10:08:59.705Z,15.10
2022-09-18T10:11:27.262Z,15.02
2022-09-18T10:14:22.535Z,14.61
2022-09-18T10:16:53.086Z,15.55
2022-09-18T10:19:22.040Z,15.20
2022-09-18T10:21:54.607Z,15.17
2022-09-18T10:24:30.955Z,15.12
2022-09-18T10:27:07.755Z,14.83
2022-09-18T10:29:36.141Z,14.79
2022-09-18T10:32:06.756Z,14.93
2022-09-18T10:34:48.769Z,15.16
2022-09-18T10:37:42.069Z,15.26
2022-09-18T10:40:37.728Z,15.31
2022-09-18T10:43:17.488Z,15.45
2022-09-18T10:45:54.419Z,15.36
2022-09-18T10:48:33.323Z,15.57
2022-09-18T10:51:02.278Z,15.49
2022-09-18T10:53:42.462Z,16.46
2022-09-18T10:56:22.445Z,16.47
2022-09-18T10:58:52.592Z,16.89
2022-09-18T11:01:19.842Z,16.35
2022-09-18T11:04:02.724Z,16.15
2022-09-18T11:06:35.695Z,16.25
2022-09-18T11:09:29.841Z,16.65
2022-09-18T11:11:56.605Z,16.40
2022-09-18T11:14:31.761Z,16.42
2022-09-18T11:17:39.609Z,15.75
2022-09-18T11:20:07.170Z,16.44
2022-09-18T11:22:53.910Z,17.17
2022-09-18T11:25:30.995Z,18.01
2022-09-18T11:28:21.415Z,17.59
2022-09-18T11:31:18.501Z,17.04
2022-09-18T11:34:02.905Z,16.30
2022-09-18T11:36:40.876Z,16.04
2022-09-18T11:39:15.540Z,15.91
2022-09-18T11:41:44.281Z,15.65
2022-09-18T11:44:21.884Z,15.84
2022-09-18T11:47:06.471Z,16.12
2022-09-18T11:49:39.151Z,16.12
2022-09-18T11:52:20.928Z,15.58
2022-09-18T11:55:08.171Z,15.73
2022-09-18T11:57:41.871Z,15.56
2022-09-18T12:00:37.529Z,15.28
2022-09-18T12:03:23.308Z,15.28
2022-09-18T12:05:57.897Z,14.96
2022-09-18T12:08:36.221Z,14.97
2022-09-18T12:11:20.733Z,14.69
2022-09-18T12:14:12.913Z,14.92
2022-09-18T12:17:12.842Z,14.60
2022-09-18T12:19:47.989Z,15.01
2022-09-18T12:22:34.237Z,15.05
2022-09-18T12:25:10.632Z,15.05
2022-09-18T12:28:34.581Z,14.98
2022-09-18T12:31:24.089Z,14.77
2022-09-18T12:33:57.163Z,14.87
2022-09-18T12:36:44.837Z,14.98
2022-09-18T12:39:39.564Z,15.19
2022-09-18T12:42:26.390Z,15.20
2022-09-18T12:45:23.394Z,15.08
2022-09-18T12:47:53.257Z,15.13
2022-09-18T12:50:35.253Z,14.78
2022-09-18T12:53:36.223Z,15.23
2022-09-18T12:56:12.078Z,15.20
2022-09-18T12:59:05.135Z,15.10
2022-09-18T13:01:56.666Z,14.90
2022-09-18T13:04:35.088Z,15.05
2022-09-18T13:07:17.068Z,14.95
2022-09-18T13:10:05.195Z,15.16
2022-09-18T13:12:41.830Z,14.82
2022-09-18T13:15:23.376Z,15.08
2022-09-18T13:17:55.652Z,14.94
2022-09-18T13:20:34.998Z,14.77
2022-09-18T13:23:42.539Z,15.08
2022-09-18T13:26:13.689Z,14.98
2022-09-18T13:28:41.989Z,14.83
2022-09-18T13:31:14.879Z,15.21
2022-09-18T13:33:55.663Z,15.16
2022-09-18T13:36:28.785Z,14.90
2022-09-18T13:39:00.600Z,14.80
2022-09-18T13:41:29.231Z,14.91
2022-09-18T13:44:00.394Z,14.91
2022-09-18T13:46:37.305Z,14.74
2022-09-18T13:49:18.123Z,14.91
2022-09-18T13:51:44.998Z,15.04
2022-09-18T13:54:12.103Z,15.04
2022-09-18T13:57:03.927Z,14.96
2022-09-18T13:59:49.033Z,14.89
2022-09-18T14:02:47.264Z,14.89
2022-09-18T14:05:46.038Z,14.95
2022-09-18T14:08:22.275Z,14.90
2022-09-18T14:11:05.382Z,15.06
2022-09-18T14:13:47.456Z,15.14
2022-09-18T14:16:20.368Z,15.18
2022-09-18T14:18:47.675Z,15.01
2022-09-18T14:21:17.257Z,15.03
2022-09-18T14:23:46.873Z,15.10
2022-09-18T14:26:37.170Z,15.18
2022-09-18T14:29:10.092Z,15.19
2022-09-18T14:31:48.931Z,15.05
2022-09-18T14:34:24.355Z,15.03
2022-09-18T14:36:59.077Z,14.83
2022-09-18T14:39:32.715Z,14.94
2022-09-18T14:42:38.359Z,15.02
2022-09-18T14:45:11.503Z,14.98
2022-09-18T14:47:42.811Z,14.92
2022-09-18T14:50:21.656Z,14.88
2022-09-18T14:52:48.442Z,14.89
2022-09-18T14:55:31.850Z,14.79
2022-09-18T14:58:06.975Z,15.00
2022-09-18T15:00:36.531Z,14.91
2022-09-18T15:03:18.505Z,15.23
2022-09-18T15:05:51.106Z,14.59
2022-09-18T15:08:25.948Z,15.21
2022-09-18T15:10:56.585Z,14.89
2022-09-18T15:13:23.607Z,15.03
2022-09-18T15:16:04.263Z,14.93
2022-09-18T15:18:42.491Z,15.04
2022-09-18T15:21:33.039Z,15.07
2022-09-18T15:24:03.436Z,14.90
2022-09-18T15:26:38.820Z,14.92
2022-09-18T15:29:18.482Z,14.59
2022-09-18T15:31:45.715Z,15.02
2022-09-18T15:34:20.493Z,14.98
2022-09-18T15:36:55.880Z,14.90
2022-09-18T15:39:46.408Z,15.09
2022-09-18T15:42:25.321Z,15.03
2022-09-18T15:44:52.976Z,15.00
2022-09-18T15:47:30.916Z,14.96
2022-09-18T15:50:02.184Z,14.93
2022-09-18T15:52:42.193Z,14.72
2022-09-18T15:55:15.858Z,14.87
2022-09-18T15:57:54.656Z,13.72
2022-09-18T16:00:24.424Z,14.78
2022-09-18T16:02:57.832Z,14.82
2022-09-18T16:05:26.655Z,14.71
2022-09-18T16:08:02.356Z,14.63
2022-09-18T16:10:34.990Z,14.81
2022-09-18T16:13:02.481Z,14.57
2022-09-18T16:15:29.595Z,14.69
2022-09-18T16:18:25.052Z,14.57
2022-09-18T16:20:53.400Z,14.61
2022-09-18T16:23:32.121Z,14.65
2022-09-18T16:26:15.853Z,14.45
2022-09-18T16:28:46.425Z,14.53
2022-09-18T16:31:16.349Z,14.57
2022-09-18T16:34:04.674Z,14.68
2022-09-18T16:36:38.339Z,14.45
2022-09-18T16:39:08.687Z,14.58
2022-09-18T16:41:36.167Z,14.61
2022-09-18T16:44:11.662Z,14.47
2022-09-18T16:46:43.469Z,14.25
2022-09-18T16:49:12.146Z,14.57
2022-09-18T16:51:38.888Z,14.55
2022-09-18T16:54:12.588Z,14.50
2022-09-18T16:56:44.964Z,14.49
2022-09-18T16:59:12.529Z,14.51
2022-09-18T17:02:02.460Z,14.30
2022-09-18T17:04:27.376Z,14.42
2022-09-18T17:06:54.335Z,14.36
2022-09-18T17:09:23.816Z,14.47
2022-09-18T17:11:51.846Z,14.53
2022-09-18T17:14:19.328Z,14.46
2022-09-18T17:16:46.082Z,14.53
2022-09-18T17:19:14.442Z,14.43
2022-09-18T17:21:41.729Z,14.48
2022-09-18T17:24:09.427Z,14.48
2022-09-18T17:26:38.154Z,14.67
2022-09-18T17:29:05.835Z,14.64
2022-09-18T17:31:32.887Z,14.64
2022-09-18T17:34:00.820Z,14.71
2022-09-18T17:36:27.850Z,14.65
2022-09-18T17:38:54.617Z,14.42
2022-09-18T17:41:24.325Z,14.34
2022-09-18T17:43:54.269Z,14.60
2022-09-18T17:46:21.545Z,14.36
2022-09-18T17:48:48.703Z,14.35
2022-09-18T17:51:18.244Z,14.30
2022-09-18T17:53:48.409Z,14.19
2022-09-18T17:56:19.773Z,13.94
2022-09-18T17:58:47.601Z,13.88
2022-09-18T18:01:17.521Z,13.82
2022-09-18T18:03:47.076Z,13.80
2022-09-18T18:06:17.711Z,13.78
2022-09-18T18:08:52.191Z,13.62
2022-09-18T18:11:22.272Z,13.77
2022-09-18T18:13:53.439Z,13.81
2022-09-18T18:16:23.551Z,13.51
2022-09-18T18:18:52.947Z,13.42
2022-09-18T18:21:20.150Z,13.34
2022-09-18T18:23:47.358Z,13.10
2022-09-18T18:26:14.229Z,13.21
2022-09-18T18:28:41.909Z,13.22
2022-09-18T18:31:13.696Z,13.11
2022-09-18T18:33:43.934Z,13.34
2022-09-18T18:36:22.437Z,12.95
2022-09-18T18:38:50.779Z,13.34
2022-09-18T18:41:19.880Z,13.10
2022-09-18T18:43:53.756Z,13.25
2022-09-18T18:46:21.831Z,13.38
2022-09-18T18:48:55.050Z,13.41
2022-09-18T18:51:21.933Z,13.41
2022-09-18T18:53:48.732Z,13.22
2022-09-18T18:56:16.756Z,12.85
2022-09-18T18:58:44.283Z,12.77
2022-09-18T19:01:16.781Z,12.53
2022-09-18T19:03:49.809Z,12.67
2022-09-18T19:06:16.907Z,12.71
2022-09-18T19:08:47.213Z,12.32
2022-09-18T19:11:15.977Z,12.52
2022-09-18T19:13:44.557Z,12.28
2022-09-18T19:16:12.754Z,12.10
2022-09-18T19:18:39.612Z,12.56
2022-09-18T19:21:07.689Z,12.39
2022-09-18T19:23:35.577Z,12.68
2022-09-18T19:26:02.727Z,12.56
2022-09-18T19:28:30.766Z,12.88
2022-09-18T19:31:04.443Z,12.88
2022-09-18T19:33:34.234Z,13.04
2022-09-18T19:36:08.023Z,12.77
2022-09-18T19:38:37.096Z,12.95
2022-09-18T19:41:11.619Z,13.12
2022-09-18T19:43:38.609Z,13.12
2022-09-18T19:46:07.636Z,12.91
2022-09-18T19:48:34.623Z,12.81
2022-09-18T19:51:01.655Z,12.35
2022-09-18T19:53:28.400Z,12.83
2022-09-18T19:55:55.509Z,12.71
2022-09-18T19:58:22.654Z,12.51
2022-09-18T20:00:50.535Z,12.46
2022-09-18T20:03:17.392Z,12.32
2022-09-18T20:05:44.263Z,12.05
2022-09-18T20:08:11.437Z,11.87
2022-09-18T20:10:39.886Z,11.95
2022-09-18T20:13:07.130Z,12.00
2022-09-18T20:15:34.137Z,11.82
2022-09-18T20:18:00.815Z,11.34
2022-09-18T20:20:27.930Z,11.51
2022-09-18T20:22:55.835Z,11.37
2022-09-18T20:25:27.615Z,11.52
2022-09-18T20:27:55.354Z,11.60
2022-09-18T20:30:22.429Z,11.79
2022-09-18T20:32:49.173Z,11.84
2022-09-18T20:35:16.284Z,11.81
2022-09-18T20:37:42.987Z,11.86
2022-09-18T20:40:12.479Z,11.49
2022-09-18T20:42:39.513Z,11.83
2022-09-18T20:45:07.324Z,11.68
2022-09-18T20:47:36.341Z,11.71
2022-09-18T20:50:11.957Z,11.82
2022-09-18T20:52:41.843Z,11.70
2022-09-18T20:55:13.775Z,11.91
2022-09-18T20:57:41.293Z,12.02
2022-09-18T21:00:10.032Z,11.80
2022-09-18T21:02:37.657Z,11.78
2022-09-18T21:05:10.958Z,11.98
2022-09-18T21:07:37.637Z,11.85
2022-09-18T21:10:04.712Z,11.55
2022-09-18T21:12:35.084Z,11.60
2022-09-18T21:15:02.165Z,11.35
2022-09-18T21:17:30.416Z,11.44
2022-09-18T21:19:57.425Z,10.78
2022-09-18T21:22:24.011Z,10.83
2022-09-18T21:24:50.602Z,10.67
2022-09-18T21:27:17.163Z,10.61
2022-09-18T21:29:43.835Z,10.68
2022-09-18T21:32:12.045Z,10.72
2022-09-18T21:34:40.238Z,10.69
2022-09-18T21:37:08.266Z,10.69
2022-09-18T21:39:35.319Z,10.72
2022-09-18T21:42:05.641Z,10.72
2022-09-18T21:44:33.335Z,10.69
2022-09-18T21:47:02.263Z,10.60
2022-09-18T21:49:30.051Z,10.65
2022-09-18T21:52:02.501Z,10.63
2022-09-18T21:54:32.239Z,10.57
2022-09-18T21:56:59.480Z,10.52
2022-09-18T21:59:30.161Z,10.50
2022-09-18T22:01:57.796Z,10.46
2022-09-18T22:04:30.355Z,10.36
2022-09-18T22:06:58.969Z,10.40
2022-09-18T22:09:34.324Z,10.31
2022-09-18T22:12:01.320Z,10.13
2022-09-18T22:14:31.968Z,10.11
2022-09-18T22:17:04.616Z,10.13
2022-09-18T22:19:33.176Z,9.85
2022-09-18T22:22:00.211Z,9.90
2022-09-18T22:24:27.573Z,9.84
2022-09-18T22:27:08.162Z,9.76
2022-09-18T22:29:37.247Z,9.76
2022-09-18T22:32:04.116Z,9.47
2022-09-18T22:34:32.491Z,9.72
2022-09-18T22:37:00.353Z,9.76
2022-09-18T22:39:27.694Z,9.83
2022-09-18T22:41:54.861Z,9.98
2022-09-18T22:44:21.833Z,10.03
2022-09-18T22:46:49.924Z,10.04
2022-09-18T22:49:18.101Z,10.06
2022-09-18T22:51:45.738Z,10.01
2022-09-18T22:54:13.738Z,10.04
2022-09-18T22:56:47.951Z,10.03
2022-09-18T22:59:16.809Z,9.95
2022-09-18T23:01:56.249Z,9.90
2022-09-18T23:04:29.684Z,9.84
2022-09-18T23:06:57.766Z,9.68
2022-09-18T23:09:25.182Z,9.51
2022-09-18T23:11:54.667Z,9.42
2022-09-18T23:14:24.214Z,9.35
2022-09-18T23:16:50.893Z,9.19
2022-09-18T23:19:28.619Z,9.40
2022-09-18T23:21:55.686Z,9.39
2022-09-18T23:24:23.118Z,9.32
2022-09-18T23:26:51.769Z,9.26
2022-09-18T23:29:21.372Z,9.26
2022-09-18T23:31:50.457Z,8.81
2022-09-18T23:34:19.907Z,9.28
2022-09-18T23:36:48.919Z,8.93
2022-09-18T23:39:22.484Z,9.23
2022-09-18T23:41:49.811Z,8.91
2022-09-18T23:44:18.359Z,9.19
2022-09-18T23:46:45.687Z,9.16
2022-09-18T23:49:16.073Z,9.22
2022-09-18T23:51:46.114Z,8.96
2022-09-18T23:54:24.121Z,8.82
2022-09-18T23:56:51.735Z,9.05
2022-09-18T23:59:22.853Z,9.12
